Punkin Center, Colorado
Current Conditions -  °F | °C
As of 8:53 PM on Thursday 18 Dec 2014 (Local Time) from KLHX Reporting Station
Broken Clouds Broken Clouds  
Wind Chill: 26°   Ceiling: 6500
Heat Index: 32°   Visibility: 9mi
Dew Point: 28°   Wind: 6mph
Humidity: 85%   Direction: 80°E
Pressure: 30.11"   Gusts: NA
Location:  38.363°N, 103.799°W
Report Text: KLHX 190353Z AUTO 08005KT 9SM BKN065 BKN110 00/M02 A3011 RMK AO2 SLP209 T00001022
Loading
Personal Weather Stations






























Interactive Weather Map New forecast layout! Learn more

10-Day Weather Forecast

Advertisements
Track Severe Weather on mobile